sensor_id;sensor_type;location;lat;lon;timestamp;P1;durP1;ratioP1;P2;durP2;ratioP2
11731;SDS011;5922;53.734;10.258;2024-01-30T00:02:26;9.07;;;6.77;;
11731;SDS011;5922;53.734;10.258;2024-01-30T00:05:13;9.93;;;6.83;;
11731;SDS011;5922;53.734;10.258;2024-01-30T00:07:44;8.23;;;6.87;;
11731;SDS011;5922;53.734;10.258;2024-01-30T00:10:27;9.33;;;6.50;;
11731;SDS011;5922;53.734;10.258;2024-01-30T00:13:00;10.80;;;7.27;;
11731;SDS011;5922;53.734;10.258;2024-01-30T00:15:43;9.33;;;7.23;;
11731;SDS011;5922;53.734;10.258;2024-01-30T00:18:13;9.73;;;7.37;;
11731;SDS011;5922;53.734;10.258;2024-01-30T00:20:52;11.93;;;7.97;;
11731;SDS011;5922;53.734;10.258;2024-01-30T00:23:30;9.73;;;7.33;;
11731;SDS011;5922;53.734;10.258;2024-01-30T00:26:11;10.13;;;6.83;;
11731;SDS011;5922;53.734;10.258;2024-01-30T00:28:40;8.63;;;6.67;;
11731;SDS011;5922;53.734;10.258;2024-01-30T00:31:21;9.97;;;6.47;;
11731;SDS011;5922;53.734;10.258;2024-01-30T00:34:00;8.67;;;6.63;;
11731;SDS011;5922;53.734;10.258;2024-01-30T00:36:33;9.27;;;6.43;;
11731;SDS011;5922;53.734;10.258;2024-01-30T00:39:01;10.37;;;7.10;;
11731;SDS011;5922;53.734;10.258;2024-01-30T00:41:34;8.67;;;6.10;;
11731;SDS011;5922;53.734;10.258;2024-01-30T00:44:13;8.43;;;5.70;;
11731;SDS011;5922;53.734;10.258;2024-01-30T00:46:52;7.77;;;5.77;;
11731;SDS011;5922;53.734;10.258;2024-01-30T00:49:41;8.40;;;6.07;;
11731;SDS011;5922;53.734;10.258;2024-01-30T00:52:24;8.27;;;6.10;;
11731;SDS011;5922;53.734;10.258;2024-01-30T00:55:00;12.37;;;6.53;;
11731;SDS011;5922;53.734;10.258;2024-01-30T00:57:32;9.10;;;5.83;;
11731;SDS011;5922;53.734;10.258;2024-01-30T01:00:05;9.77;;;6.83;;
11731;SDS011;5922;53.734;10.258;2024-01-30T01:02:38;7.17;;;5.37;;
11731;SDS011;5922;53.734;10.258;2024-01-30T01:05:12;8.00;;;6.20;;
11731;SDS011;5922;53.734;10.258;2024-01-30T01:10:34;11.10;;;6.27;;
11731;SDS011;5922;53.734;10.258;2024-01-30T01:13:06;8.17;;;5.63;;
11731;SDS011;5922;53.734;10.258;2024-01-30T01:15:40;7.77;;;5.47;;
11731;SDS011;5922;53.734;10.258;2024-01-30T01:18:21;7.70;;;5.80;;
11731;SDS011;5922;53.734;10.258;2024-01-30T01:21:08;8.27;;;6.10;;
11731;SDS011;5922;53.734;10.258;2024-01-30T01:23:41;7.23;;;5.90;;
11731;SDS011;5922;53.734;10.258;2024-01-30T01:26:25;8.57;;;6.00;;
11731;SDS011;5922;53.734;10.258;2024-01-30T01:28:58;7.23;;;5.70;;
11731;SDS011;5922;53.734;10.258;2024-01-30T01:31:38;10.43;;;6.50;;
11731;SDS011;5922;53.734;10.258;2024-01-30T01:34:19;8.57;;;5.87;;
11731;SDS011;5922;53.734;10.258;2024-01-30T01:36:51;9.17;;;6.13;;
11731;SDS011;5922;53.734;10.258;2024-01-30T01:39:25;9.13;;;5.60;;
11731;SDS011;5922;53.734;10.258;2024-01-30T01:41:57;7.27;;;5.47;;
11731;SDS011;5922;53.734;10.258;2024-01-30T01:44:39;6.90;;;5.67;;
11731;SDS011;5922;53.734;10.258;2024-01-30T01:47:21;7.17;;;5.80;;
11731;SDS011;5922;53.734;10.258;2024-01-30T01:52:47;8.63;;;6.33;;
11731;SDS011;5922;53.734;10.258;2024-01-30T01:55:15;9.50;;;6.93;;
11731;SDS011;5922;53.734;10.258;2024-01-30T01:57:43;9.23;;;6.97;;
11731;SDS011;5922;53.734;10.258;2024-01-30T02:00:13;9.20;;;7.10;;
11731;SDS011;5922;53.734;10.258;2024-01-30T02:02:44;10.47;;;7.17;;
11731;SDS011;5922;53.734;10.258;2024-01-30T02:05:24;8.37;;;6.90;;
11731;SDS011;5922;53.734;10.258;2024-01-30T02:08:14;10.30;;;6.43;;
11731;SDS011;5922;53.734;10.258;2024-01-30T02:10:44;7.03;;;6.20;;
11731;SDS011;5922;53.734;10.258;2024-01-30T02:13:23;9.17;;;6.30;;
11731;SDS011;5922;53.734;10.258;2024-01-30T02:15:56;8.77;;;6.10;;
11731;SDS011;5922;53.734;10.258;2024-01-30T02:18:40;7.93;;;6.27;;
11731;SDS011;5922;53.734;10.258;2024-01-30T02:21:18;9.23;;;6.20;;
11731;SDS011;5922;53.734;10.258;2024-01-30T02:23:57;8.27;;;6.00;;
11731;SDS011;5922;53.734;10.258;2024-01-30T02:26:41;8.93;;;6.70;;
11731;SDS011;5922;53.734;10.258;2024-01-30T02:29:23;10.07;;;6.37;;
11731;SDS011;5922;53.734;10.258;2024-01-30T02:31:56;7.57;;;5.93;;
11731;SDS011;5922;53.734;10.258;2024-01-30T02:34:34;7.77;;;5.77;;
11731;SDS011;5922;53.734;10.258;2024-01-30T02:37:12;7.63;;;5.70;;
11731;SDS011;5922;53.734;10.258;2024-01-30T02:39:40;7.43;;;5.30;;
11731;SDS011;5922;53.734;10.258;2024-01-30T02:42:07;7.53;;;5.80;;
11731;SDS011;5922;53.734;10.258;2024-01-30T02:44:39;6.63;;;5.77;;
11731;SDS011;5922;53.734;10.258;2024-01-30T02:47:18;9.50;;;6.30;;
11731;SDS011;5922;53.734;10.258;2024-01-30T02:49:49;7.93;;;5.40;;
11731;SDS011;5922;53.734;10.258;2024-01-30T02:52:22;10.10;;;6.20;;
11731;SDS011;5922;53.734;10.258;2024-01-30T02:54:54;8.73;;;5.60;;
11731;SDS011;5922;53.734;10.258;2024-01-30T02:57:29;6.30;;;5.70;;
11731;SDS011;5922;53.734;10.258;2024-01-30T02:59:59;7.60;;;5.23;;
11731;SDS011;5922;53.734;10.258;2024-01-30T03:02:34;8.00;;;5.80;;
11731;SDS011;5922;53.734;10.258;2024-01-30T03:05:11;7.57;;;5.90;;
11731;SDS011;5922;53.734;10.258;2024-01-30T03:07:49;7.43;;;5.90;;
11731;SDS011;5922;53.734;10.258;2024-01-30T03:10:25;8.20;;;6.00;;
11731;SDS011;5922;53.734;10.258;2024-01-30T03:13:01;12.23;;;6.50;;
11731;SDS011;5922;53.734;10.258;2024-01-30T03:15:29;9.03;;;6.33;;
11731;SDS011;5922;53.734;10.258;2024-01-30T03:18:06;8.73;;;5.57;;
11731;SDS011;5922;53.734;10.258;2024-01-30T03:20:39;9.83;;;6.13;;
11731;SDS011;5922;53.734;10.258;2024-01-30T03:23:08;7.87;;;5.80;;
11731;SDS011;5922;53.734;10.258;2024-01-30T03:25:35;7.23;;;5.63;;
11731;SDS011;5922;53.734;10.258;2024-01-30T03:28:04;8.30;;;6.10;;
11731;SDS011;5922;53.734;10.258;2024-01-30T03:30:33;8.17;;;6.10;;
11731;SDS011;5922;53.734;10.258;2024-01-30T03:33:04;10.37;;;6.77;;
11731;SDS011;5922;53.734;10.258;2024-01-30T03:35:32;9.53;;;6.43;;
11731;SDS011;5922;53.734;10.258;2024-01-30T03:38:01;7.27;;;6.03;;
11731;SDS011;5922;53.734;10.258;2024-01-30T03:40:30;8.53;;;6.27;;
11731;SDS011;5922;53.734;10.258;2024-01-30T03:42:57;7.93;;;6.57;;
11731;SDS011;5922;53.734;10.258;2024-01-30T03:45:28;11.83;;;7.03;;
11731;SDS011;5922;53.734;10.258;2024-01-30T03:48:04;11.13;;;6.17;;
11731;SDS011;5922;53.734;10.258;2024-01-30T03:50:44;10.07;;;6.60;;
11731;SDS011;5922;53.734;10.258;2024-01-30T03:53:24;8.00;;;6.40;;
11731;SDS011;5922;53.734;10.258;2024-01-30T03:55:56;9.03;;;6.13;;
11731;SDS011;5922;53.734;10.258;2024-01-30T03:58:41;7.73;;;6.33;;
11731;SDS011;5922;53.734;10.258;2024-01-30T04:01:14;8.93;;;6.33;;
11731;SDS011;5922;53.734;10.258;2024-01-30T04:03:57;8.63;;;6.30;;
11731;SDS011;5922;53.734;10.258;2024-01-30T04:06:26;10.93;;;6.83;;
11731;SDS011;5922;53.734;10.258;2024-01-30T04:08:57;9.73;;;6.73;;
11731;SDS011;5922;53.734;10.258;2024-01-30T04:11:30;9.03;;;7.30;;
11731;SDS011;5922;53.734;10.258;2024-01-30T04:14:11;7.93;;;6.47;;
11731;SDS011;5922;53.734;10.258;2024-01-30T04:16:47;9.07;;;6.50;;
11731;SDS011;5922;53.734;10.258;2024-01-30T04:19:20;8.77;;;6.53;;
11731;SDS011;5922;53.734;10.258;2024-01-30T04:22:02;10.47;;;7.00;;
11731;SDS011;5922;53.734;10.258;2024-01-30T04:24:40;8.30;;;6.60;;
11731;SDS011;5922;53.734;10.258;2024-01-30T04:27:21;7.23;;;6.40;;
11731;SDS011;5922;53.734;10.258;2024-01-30T04:29:54;9.93;;;6.57;;
11731;SDS011;5922;53.734;10.258;2024-01-30T04:32:31;9.23;;;6.43;;
11731;SDS011;5922;53.734;10.258;2024-01-30T04:35:16;10.57;;;7.13;;
11731;SDS011;5922;53.734;10.258;2024-01-30T04:37:51;9.43;;;6.57;;
11731;SDS011;5922;53.734;10.258;2024-01-30T04:40:24;10.63;;;6.87;;
11731;SDS011;5922;53.734;10.258;2024-01-30T04:43:02;6.93;;;6.23;;
11731;SDS011;5922;53.734;10.258;2024-01-30T04:45:43;10.90;;;6.27;;
11731;SDS011;5922;53.734;10.258;2024-01-30T04:48:18;9.30;;;7.77;;
11731;SDS011;5922;53.734;10.258;2024-01-30T04:51:18;11.30;;;7.57;;
11731;SDS011;5922;53.734;10.258;2024-01-30T04:53:56;11.83;;;8.17;;
11731;SDS011;5922;53.734;10.258;2024-01-30T04:56:27;11.60;;;7.60;;
11731;SDS011;5922;53.734;10.258;2024-01-30T04:58:56;11.13;;;7.77;;
11731;SDS011;5922;53.734;10.258;2024-01-30T05:01:29;11.73;;;7.90;;
11731;SDS011;5922;53.734;10.258;2024-01-30T05:03:59;12.90;;;7.57;;
11731;SDS011;5922;53.734;10.258;2024-01-30T05:06:37;10.27;;;6.97;;
11731;SDS011;5922;53.734;10.258;2024-01-30T05:09:04;10.03;;;7.03;;
11731;SDS011;5922;53.734;10.258;2024-01-30T05:11:40;9.00;;;7.23;;
11731;SDS011;5922;53.734;10.258;2024-01-30T05:14:14;11.20;;;7.67;;
11731;SDS011;5922;53.734;10.258;2024-01-30T05:16:43;8.97;;;7.40;;
11731;SDS011;5922;53.734;10.258;2024-01-30T05:19:12;8.83;;;7.23;;
11731;SDS011;5922;53.734;10.258;2024-01-30T05:21:42;9.10;;;6.33;;
11731;SDS011;5922;53.734;10.258;2024-01-30T05:24:17;10.63;;;7.13;;
11731;SDS011;5922;53.734;10.258;2024-01-30T05:26:45;9.57;;;6.90;;
11731;SDS011;5922;53.734;10.258;2024-01-30T05:29:14;9.83;;;7.30;;
11731;SDS011;5922;53.734;10.258;2024-01-30T05:31:42;9.77;;;7.50;;
11731;SDS011;5922;53.734;10.258;2024-01-30T05:34:09;9.10;;;7.27;;
11731;SDS011;5922;53.734;10.258;2024-01-30T05:36:37;9.47;;;7.73;;
11731;SDS011;5922;53.734;10.258;2024-01-30T05:39:04;11.23;;;7.87;;
11731;SDS011;5922;53.734;10.258;2024-01-30T05:41:34;9.97;;;7.53;;
11731;SDS011;5922;53.734;10.258;2024-01-30T05:44:07;10.63;;;7.20;;
11731;SDS011;5922;53.734;10.258;2024-01-30T05:46:41;10.17;;;8.17;;
11731;SDS011;5922;53.734;10.258;2024-01-30T05:49:22;11.43;;;7.30;;
11731;SDS011;5922;53.734;10.258;2024-01-30T05:52:03;10.07;;;7.73;;
11731;SDS011;5922;53.734;10.258;2024-01-30T05:54:47;10.47;;;7.17;;
11731;SDS011;5922;53.734;10.258;2024-01-30T05:57:28;11.97;;;7.20;;
11731;SDS011;5922;53.734;10.258;2024-01-30T05:59:57;11.67;;;7.90;;
11731;SDS011;5922;53.734;10.258;2024-01-30T06:02:42;14.83;;;7.87;;
11731;SDS011;5922;53.734;10.258;2024-01-30T06:05:15;11.07;;;7.73;;
11731;SDS011;5922;53.734;10.258;2024-01-30T06:07:57;10.40;;;8.17;;
11731;SDS011;5922;53.734;10.258;2024-01-30T06:10:27;12.23;;;8.13;;
11731;SDS011;5922;53.734;10.258;2024-01-30T06:13:23;9.63;;;7.20;;
11731;SDS011;5922;53.734;10.258;2024-01-30T06:16:04;10.00;;;7.33;;
11731;SDS011;5922;53.734;10.258;2024-01-30T06:18:33;11.47;;;7.50;;
11731;SDS011;5922;53.734;10.258;2024-01-30T06:21:10;10.23;;;7.20;;
11731;SDS011;5922;53.734;10.258;2024-01-30T06:23:40;12.77;;;7.77;;
11731;SDS011;5922;53.734;10.258;2024-01-30T06:26:21;8.97;;;7.47;;
11731;SDS011;5922;53.734;10.258;2024-01-30T06:28:54;10.33;;;7.50;;
11731;SDS011;5922;53.734;10.258;2024-01-30T06:31:26;11.27;;;7.63;;
11731;SDS011;5922;53.734;10.258;2024-01-30T06:34:02;10.73;;;7.73;;
11731;SDS011;5922;53.734;10.258;2024-01-30T06:36:39;12.03;;;7.80;;
11731;SDS011;5922;53.734;10.258;2024-01-30T06:39:15;9.30;;;7.80;;
11731;SDS011;5922;53.734;10.258;2024-01-30T06:44:56;10.03;;;7.37;;
11731;SDS011;5922;53.734;10.258;2024-01-30T06:47:40;9.67;;;7.17;;
11731;SDS011;5922;53.734;10.258;2024-01-30T06:50:14;11.33;;;8.23;;
11731;SDS011;5922;53.734;10.258;2024-01-30T06:52:56;11.83;;;7.73;;
11731;SDS011;5922;53.734;10.258;2024-01-30T06:55:29;10.57;;;7.93;;
11731;SDS011;5922;53.734;10.258;2024-01-30T06:58:03;10.40;;;7.63;;
11731;SDS011;5922;53.734;10.258;2024-01-30T07:00:37;12.53;;;7.90;;
11731;SDS011;5922;53.734;10.258;2024-01-30T07:03:14;11.87;;;8.13;;
11731;SDS011;5922;53.734;10.258;2024-01-30T07:08:39;10.73;;;7.70;;
11731;SDS011;5922;53.734;10.258;2024-01-30T07:11:17;12.10;;;7.97;;
11731;SDS011;5922;53.734;10.258;2024-01-30T07:13:50;8.87;;;7.40;;
11731;SDS011;5922;53.734;10.258;2024-01-30T07:16:24;12.03;;;8.50;;
11731;SDS011;5922;53.734;10.258;2024-01-30T07:21:56;11.13;;;8.43;;
11731;SDS011;5922;53.734;10.258;2024-01-30T07:24:28;9.67;;;7.37;;
11731;SDS011;5922;53.734;10.258;2024-01-30T07:27:14;11.67;;;8.33;;
11731;SDS011;5922;53.734;10.258;2024-01-30T07:29:42;12.27;;;8.77;;
11731;SDS011;5922;53.734;10.258;2024-01-30T07:32:10;11.37;;;8.03;;
11731;SDS011;5922;53.734;10.258;2024-01-30T07:34:40;9.43;;;8.20;;
11731;SDS011;5922;53.734;10.258;2024-01-30T07:37:17;12.10;;;8.80;;
11731;SDS011;5922;53.734;10.258;2024-01-30T07:39:57;10.50;;;7.93;;
11731;SDS011;5922;53.734;10.258;2024-01-30T07:42:29;13.50;;;8.97;;
11731;SDS011;5922;53.734;10.258;2024-01-30T07:45:07;19.67;;;9.60;;
11731;SDS011;5922;53.734;10.258;2024-01-30T07:47:35;11.90;;;8.87;;
11731;SDS011;5922;53.734;10.258;2024-01-30T07:50:13;14.73;;;9.20;;
11731;SDS011;5922;53.734;10.258;2024-01-30T07:52:51;10.90;;;8.07;;
11731;SDS011;5922;53.734;10.258;2024-01-30T07:55:25;12.07;;;7.83;;
11731;SDS011;5922;53.734;10.258;2024-01-30T07:58:02;14.57;;;9.03;;
11731;SDS011;5922;53.734;10.258;2024-01-30T08:00:29;11.73;;;8.53;;
11731;SDS011;5922;53.734;10.258;2024-01-30T08:02:57;12.13;;;8.63;;
11731;SDS011;5922;53.734;10.258;2024-01-30T08:05:24;11.90;;;8.70;;
11731;SDS011;5922;53.734;10.258;2024-01-30T08:07:59;13.53;;;8.97;;
11731;SDS011;5922;53.734;10.258;2024-01-30T08:10:28;13.97;;;8.67;;
11731;SDS011;5922;53.734;10.258;2024-01-30T08:12:58;11.60;;;8.37;;
11731;SDS011;5922;53.734;10.258;2024-01-30T08:15:26;17.83;;;8.93;;
11731;SDS011;5922;53.734;10.258;2024-01-30T08:18:02;11.00;;;8.87;;
11731;SDS011;5922;53.734;10.258;2024-01-30T08:20:42;11.47;;;8.77;;
11731;SDS011;5922;53.734;10.258;2024-01-30T08:23:16;11.73;;;8.57;;
11731;SDS011;5922;53.734;10.258;2024-01-30T08:25:51;12.27;;;8.67;;
11731;SDS011;5922;53.734;10.258;2024-01-30T08:28:32;10.80;;;8.77;;
11731;SDS011;5922;53.734;10.258;2024-01-30T08:31:07;10.80;;;8.77;;
11731;SDS011;5922;53.734;10.258;2024-01-30T08:33:44;10.70;;;8.30;;
11731;SDS011;5922;53.734;10.258;2024-01-30T08:36:20;11.77;;;8.97;;
11731;SDS011;5922;53.734;10.258;2024-01-30T08:38:51;11.63;;;9.00;;
11731;SDS011;5922;53.734;10.258;2024-01-30T08:41:26;10.37;;;8.87;;
11731;SDS011;5922;53.734;10.258;2024-01-30T08:46:26;10.73;;;7.73;;
11731;SDS011;5922;53.734;10.258;2024-01-30T08:48:53;11.43;;;9.30;;
11731;SDS011;5922;53.734;10.258;2024-01-30T08:51:20;12.40;;;9.13;;
11731;SDS011;5922;53.734;10.258;2024-01-30T08:53:47;12.40;;;9.43;;
11731;SDS011;5922;53.734;10.258;2024-01-30T08:56:14;13.30;;;9.80;;
11731;SDS011;5922;53.734;10.258;2024-01-30T08:58:43;14.17;;;9.30;;
11731;SDS011;5922;53.734;10.258;2024-01-30T09:01:10;13.43;;;9.03;;
11731;SDS011;5922;53.734;10.258;2024-01-30T09:03:37;13.47;;;8.87;;
11731;SDS011;5922;53.734;10.258;2024-01-30T09:06:07;11.73;;;8.57;;
11731;SDS011;5922;53.734;10.258;2024-01-30T09:08:35;11.30;;;9.30;;
11731;SDS011;5922;53.734;10.258;2024-01-30T09:11:02;11.50;;;8.33;;
11731;SDS011;5922;53.734;10.258;2024-01-30T09:13:35;11.03;;;8.43;;
11731;SDS011;5922;53.734;10.258;2024-01-30T09:16:04;13.70;;;9.80;;
11731;SDS011;5922;53.734;10.258;2024-01-30T09:18:31;12.47;;;9.47;;
11731;SDS011;5922;53.734;10.258;2024-01-30T09:20:58;12.30;;;9.67;;
11731;SDS011;5922;53.734;10.258;2024-01-30T09:23:26;10.83;;;8.87;;
11731;SDS011;5922;53.734;10.258;2024-01-30T09:25:54;13.00;;;10.17;;
11731;SDS011;5922;53.734;10.258;2024-01-30T09:28:21;13.27;;;9.03;;
11731;SDS011;5922;53.734;10.258;2024-01-30T09:30:48;10.70;;;8.67;;
11731;SDS011;5922;53.734;10.258;2024-01-30T09:33:17;12.93;;;9.20;;
11731;SDS011;5922;53.734;10.258;2024-01-30T09:35:45;11.80;;;8.93;;
11731;SDS011;5922;53.734;10.258;2024-01-30T09:38:12;12.23;;;8.63;;
11731;SDS011;5922;53.734;10.258;2024-01-30T09:40:39;11.53;;;8.67;;
11731;SDS011;5922;53.734;10.258;2024-01-30T09:43:07;8.93;;;8.03;;
11731;SDS011;5922;53.734;10.258;2024-01-30T09:45:34;15.00;;;8.67;;
11731;SDS011;5922;53.734;10.258;2024-01-30T09:48:02;11.47;;;8.57;;
11731;SDS011;5922;53.734;10.258;2024-01-30T09:50:30;12.37;;;8.70;;
11731;SDS011;5922;53.734;10.258;2024-01-30T09:52:58;13.13;;;8.27;;
11731;SDS011;5922;53.734;10.258;2024-01-30T09:55:26;12.17;;;9.03;;
11731;SDS011;5922;53.734;10.258;2024-01-30T09:57:53;12.03;;;8.70;;
11731;SDS011;5922;53.734;10.258;2024-01-30T10:00:20;11.30;;;8.80;;
11731;SDS011;5922;53.734;10.258;2024-01-30T10:02:52;13.37;;;8.97;;
11731;SDS011;5922;53.734;10.258;2024-01-30T10:05:19;10.90;;;8.77;;
11731;SDS011;5922;53.734;10.258;2024-01-30T10:07:52;11.70;;;8.27;;
11731;SDS011;5922;53.734;10.258;2024-01-30T10:10:21;15.27;;;9.33;;
11731;SDS011;5922;53.734;10.258;2024-01-30T10:12:48;13.73;;;8.73;;
11731;SDS011;5922;53.734;10.258;2024-01-30T10:15:16;14.77;;;9.03;;
11731;SDS011;5922;53.734;10.258;2024-01-30T10:17:44;14.17;;;9.13;;
11731;SDS011;5922;53.734;10.258;2024-01-30T10:20:12;15.77;;;8.37;;
11731;SDS011;5922;53.734;10.258;2024-01-30T10:22:39;11.97;;;8.60;;
11731;SDS011;5922;53.734;10.258;2024-01-30T10:25:09;13.53;;;8.87;;
11731;SDS011;5922;53.734;10.258;2024-01-30T10:27:36;13.40;;;9.07;;
11731;SDS011;5922;53.734;10.258;2024-01-30T10:30:04;13.60;;;9.03;;
11731;SDS011;5922;53.734;10.258;2024-01-30T10:32:31;12.40;;;8.37;;
11731;SDS011;5922;53.734;10.258;2024-01-30T10:34:59;9.90;;;7.97;;
11731;SDS011;5922;53.734;10.258;2024-01-30T10:37:25;12.17;;;9.37;;
11731;SDS011;5922;53.734;10.258;2024-01-30T10:39:54;12.70;;;8.83;;
11731;SDS011;5922;53.734;10.258;2024-01-30T10:42:25;13.07;;;9.13;;
11731;SDS011;5922;53.734;10.258;2024-01-30T10:44:56;11.20;;;8.77;;
11731;SDS011;5922;53.734;10.258;2024-01-30T10:47:25;14.53;;;8.80;;
11731;SDS011;5922;53.734;10.258;2024-01-30T10:49:53;10.77;;;8.40;;
11731;SDS011;5922;53.734;10.258;2024-01-30T10:52:21;12.50;;;9.20;;
11731;SDS011;5922;53.734;10.258;2024-01-30T10:54:50;12.83;;;8.60;;
11731;SDS011;5922;53.734;10.258;2024-01-30T10:57:17;11.83;;;8.17;;
11731;SDS011;5922;53.734;10.258;2024-01-30T10:59:46;12.53;;;8.83;;
11731;SDS011;5922;53.734;10.258;2024-01-30T11:02:14;10.37;;;8.50;;
11731;SDS011;5922;53.734;10.258;2024-01-30T11:04:41;12.00;;;8.97;;
11731;SDS011;5922;53.734;10.258;2024-01-30T11:07:15;12.73;;;9.10;;
11731;SDS011;5922;53.734;10.258;2024-01-30T11:09:48;11.97;;;8.47;;
11731;SDS011;5922;53.734;10.258;2024-01-30T11:12:16;11.60;;;7.60;;
11731;SDS011;5922;53.734;10.258;2024-01-30T11:14:43;8.90;;;7.70;;
11731;SDS011;5922;53.734;10.258;2024-01-30T11:17:12;10.73;;;8.67;;
11731;SDS011;5922;53.734;10.258;2024-01-30T11:19:39;10.47;;;7.60;;
11731;SDS011;5922;53.734;10.258;2024-01-30T11:22:08;13.30;;;8.53;;
11731;SDS011;5922;53.734;10.258;2024-01-30T11:24:41;11.23;;;7.90;;
11731;SDS011;5922;53.734;10.258;2024-01-30T11:27:08;10.20;;;8.27;;
11731;SDS011;5922;53.734;10.258;2024-01-30T11:29:36;10.60;;;8.33;;
11731;SDS011;5922;53.734;10.258;2024-01-30T11:32:03;10.30;;;7.97;;
11731;SDS011;5922;53.734;10.258;2024-01-30T11:34:33;10.83;;;7.60;;
11731;SDS011;5922;53.734;10.258;2024-01-30T11:37:02;11.27;;;8.27;;
11731;SDS011;5922;53.734;10.258;2024-01-30T11:39:30;9.90;;;8.20;;
11731;SDS011;5922;53.734;10.258;2024-01-30T11:41:58;12.10;;;8.23;;
11731;SDS011;5922;53.734;10.258;2024-01-30T11:44:25;10.20;;;8.17;;
11731;SDS011;5922;53.734;10.258;2024-01-30T11:46:53;11.17;;;8.23;;
11731;SDS011;5922;53.734;10.258;2024-01-30T11:49:20;11.73;;;8.60;;
11731;SDS011;5922;53.734;10.258;2024-01-30T11:51:49;10.97;;;8.53;;
11731;SDS011;5922;53.734;10.258;2024-01-30T11:54:16;11.33;;;7.83;;
11731;SDS011;5922;53.734;10.258;2024-01-30T11:56:43;9.33;;;7.50;;
11731;SDS011;5922;53.734;10.258;2024-01-30T11:59:10;11.37;;;8.47;;
11731;SDS011;5922;53.734;10.258;2024-01-30T12:01:37;10.43;;;8.13;;
11731;SDS011;5922;53.734;10.258;2024-01-30T12:04:05;11.43;;;8.37;;
11731;SDS011;5922;53.734;10.258;2024-01-30T12:06:34;10.07;;;8.40;;
11731;SDS011;5922;53.734;10.258;2024-01-30T12:09:03;9.67;;;8.63;;
11731;SDS011;5922;53.734;10.258;2024-01-30T12:11:32;12.57;;;8.63;;
11731;SDS011;5922;53.734;10.258;2024-01-30T12:14:00;11.10;;;7.93;;
11731;SDS011;5922;53.734;10.258;2024-01-30T12:16:27;11.07;;;8.03;;
11731;SDS011;5922;53.734;10.258;2024-01-30T12:19:00;9.23;;;8.17;;
11731;SDS011;5922;53.734;10.258;2024-01-30T12:21:28;10.07;;;8.23;;
11731;SDS011;5922;53.734;10.258;2024-01-30T12:23:55;11.37;;;7.70;;
11731;SDS011;5922;53.734;10.258;2024-01-30T12:26:24;16.50;;;7.63;;
11731;SDS011;5922;53.734;10.258;2024-01-30T12:28:54;8.93;;;7.53;;
11731;SDS011;5922;53.734;10.258;2024-01-30T12:31:25;9.67;;;7.77;;
11731;SDS011;5922;53.734;10.258;2024-01-30T12:33:53;10.03;;;8.17;;
11731;SDS011;5922;53.734;10.258;2024-01-30T12:36:20;10.67;;;7.80;;
11731;SDS011;5922;53.734;10.258;2024-01-30T12:38:48;12.37;;;8.23;;
11731;SDS011;5922;53.734;10.258;2024-01-30T12:41:15;10.73;;;7.67;;
11731;SDS011;5922;53.734;10.258;2024-01-30T12:43:43;12.27;;;8.10;;
11731;SDS011;5922;53.734;10.258;2024-01-30T12:46:12;12.13;;;7.70;;
11731;SDS011;5922;53.734;10.258;2024-01-30T12:48:40;10.40;;;8.07;;
11731;SDS011;5922;53.734;10.258;2024-01-30T12:51:07;12.00;;;7.90;;
11731;SDS011;5922;53.734;10.258;2024-01-30T12:53:34;11.90;;;8.10;;
11731;SDS011;5922;53.734;10.258;2024-01-30T12:56:01;12.63;;;7.83;;
11731;SDS011;5922;53.734;10.258;2024-01-30T12:58:28;13.87;;;9.13;;
11731;SDS011;5922;53.734;10.258;2024-01-30T13:00:57;10.07;;;8.03;;
11731;SDS011;5922;53.734;10.258;2024-01-30T13:03:24;11.57;;;8.77;;
11731;SDS011;5922;53.734;10.258;2024-01-30T13:05:52;12.00;;;8.47;;
11731;SDS011;5922;53.734;10.258;2024-01-30T13:08:19;11.67;;;8.33;;
11731;SDS011;5922;53.734;10.258;2024-01-30T13:10:46;11.50;;;7.87;;
11731;SDS011;5922;53.734;10.258;2024-01-30T13:13:13;13.40;;;8.20;;
11731;SDS011;5922;53.734;10.258;2024-01-30T13:15:40;15.67;;;8.90;;
11731;SDS011;5922;53.734;10.258;2024-01-30T13:18:09;9.23;;;8.13;;
11731;SDS011;5922;53.734;10.258;2024-01-30T13:20:36;14.37;;;9.83;;
11731;SDS011;5922;53.734;10.258;2024-01-30T13:23:03;15.03;;;9.90;;
11731;SDS011;5922;53.734;10.258;2024-01-30T13:25:30;17.83;;;9.87;;
11731;SDS011;5922;53.734;10.258;2024-01-30T13:27:58;13.13;;;9.03;;
11731;SDS011;5922;53.734;10.258;2024-01-30T13:30:26;12.20;;;8.73;;
11731;SDS011;5922;53.734;10.258;2024-01-30T13:32:53;11.60;;;8.90;;
11731;SDS011;5922;53.734;10.258;2024-01-30T13:35:22;14.93;;;9.50;;
11731;SDS011;5922;53.734;10.258;2024-01-30T13:37:49;12.63;;;9.47;;
11731;SDS011;5922;53.734;10.258;2024-01-30T13:40:16;14.03;;;9.80;;
11731;SDS011;5922;53.734;10.258;2024-01-30T13:42:43;15.23;;;9.83;;
11731;SDS011;5922;53.734;10.258;2024-01-30T13:45:11;13.80;;;9.43;;
11731;SDS011;5922;53.734;10.258;2024-01-30T13:47:38;14.77;;;10.53;;
11731;SDS011;5922;53.734;10.258;2024-01-30T13:50:05;13.90;;;9.87;;
11731;SDS011;5922;53.734;10.258;2024-01-30T13:52:34;17.47;;;10.50;;
11731;SDS011;5922;53.734;10.258;2024-01-30T13:55:01;13.93;;;11.03;;
11731;SDS011;5922;53.734;10.258;2024-01-30T13:57:29;13.37;;;10.77;;
11731;SDS011;5922;53.734;10.258;2024-01-30T14:00:00;19.67;;;11.80;;
11731;SDS011;5922;53.734;10.258;2024-01-30T14:02:28;16.43;;;10.63;;
11731;SDS011;5922;53.734;10.258;2024-01-30T14:04:55;14.17;;;10.00;;
11731;SDS011;5922;53.734;10.258;2024-01-30T14:07:22;13.53;;;10.03;;
11731;SDS011;5922;53.734;10.258;2024-01-30T14:09:51;13.30;;;9.30;;
11731;SDS011;5922;53.734;10.258;2024-01-30T14:12:18;13.23;;;9.07;;
11731;SDS011;5922;53.734;10.258;2024-01-30T14:14:45;15.73;;;8.60;;
11731;SDS011;5922;53.734;10.258;2024-01-30T14:17:13;11.30;;;8.47;;
11731;SDS011;5922;53.734;10.258;2024-01-30T14:19:40;14.10;;;7.97;;
11731;SDS011;5922;53.734;10.258;2024-01-30T14:22:07;15.00;;;9.17;;
11731;SDS011;5922;53.734;10.258;2024-01-30T14:24:34;12.57;;;8.00;;
11731;SDS011;5922;53.734;10.258;2024-01-30T14:27:03;11.23;;;8.37;;
11731;SDS011;5922;53.734;10.258;2024-01-30T14:29:32;12.67;;;8.13;;
11731;SDS011;5922;53.734;10.258;2024-01-30T14:32:00;11.37;;;8.23;;
11731;SDS011;5922;53.734;10.258;2024-01-30T14:34:27;14.47;;;8.07;;
11731;SDS011;5922;53.734;10.258;2024-01-30T14:36:54;12.93;;;8.37;;
11731;SDS011;5922;53.734;10.258;2024-01-30T14:39:21;13.13;;;8.43;;
11731;SDS011;5922;53.734;10.258;2024-01-30T14:41:49;13.60;;;7.90;;
11731;SDS011;5922;53.734;10.258;2024-01-30T14:44:17;11.47;;;8.03;;
11731;SDS011;5922;53.734;10.258;2024-01-30T14:46:53;12.37;;;8.63;;
11731;SDS011;5922;53.734;10.258;2024-01-30T14:49:35;13.53;;;8.40;;
11731;SDS011;5922;53.734;10.258;2024-01-30T14:52:05;12.73;;;8.37;;
11731;SDS011;5922;53.734;10.258;2024-01-30T14:54:39;15.03;;;7.90;;
11731;SDS011;5922;53.734;10.258;2024-01-30T14:57:16;10.53;;;7.30;;
11731;SDS011;5922;53.734;10.258;2024-01-30T15:06:20;10.43;;;8.07;;
11731;SDS011;5922;53.734;10.258;2024-01-30T15:08:49;13.27;;;8.07;;
11731;SDS011;5922;53.734;10.258;2024-01-30T15:11:16;10.23;;;7.50;;
11731;SDS011;5922;53.734;10.258;2024-01-30T15:13:43;11.80;;;8.57;;
11731;SDS011;5922;53.734;10.258;2024-01-30T15:16:10;16.83;;;8.60;;
11731;SDS011;5922;53.734;10.258;2024-01-30T15:18:38;12.17;;;8.27;;
11731;SDS011;5922;53.734;10.258;2024-01-30T15:21:05;10.47;;;7.83;;
11731;SDS011;5922;53.734;10.258;2024-01-30T15:23:33;12.77;;;7.97;;
11731;SDS011;5922;53.734;10.258;2024-01-30T15:26:01;12.03;;;8.60;;
11731;SDS011;5922;53.734;10.258;2024-01-30T15:28:34;14.97;;;7.90;;
11731;SDS011;5922;53.734;10.258;2024-01-30T15:31:02;11.77;;;7.70;;